Ana Sayfa
METAR-TAF:

METAR-TAF

Havaalanları :

Guymon, Oklahoma, Amerika Birleşik Devletleri

Enlem: 36-40-54N, Boylam: 101-30-19W, yükseklik: 952 m

Güncel hava durumu gözlemi

Rapor saat 13:53 UTC de 1 saat ve 11 dakika önce yapıldı.
Rüzgar güneybatıdan 5 kt
Sıcaklık 25°C
Nem 65%
Basınç 1013 hPa
Görüş mesafesi: 16.1 km
Açık gökyüzü

METAR: KGUY 251353Z AUTO 22005KT 10SM CLR 25/18 A2991 RMK AO2 RAB09E20 SLP075 P0000 T02500183

Saat: 10:04 (15:04 UTC)

Tahmin

Rapor saat 11:27 UTC de 3 saat ve 37 dakika önce yapıldı.
Ayın 25'si saat 12 UTC'den ayın 26'si saat 12 UTC'ye kadar geçerli Tahmin
Rüzgar batı/güneybatıdan 9 kt
Görüş mesafesi: 10 km
25000 ft yükseklikte az bulutlu
Ayın 25'si saat 1900 UTC'den
Rüzgar doğudan 8 kt
Görüş mesafesi: 10 km
Açık gökyüzü
Ayın 26'si saat 0300 UTC'den
Rüzgar değişken yönden 6 kt
Görüş mesafesi: 10 km
25000 ft yükseklikte parçalı bulutlu

TAF: KGUY 251127Z 2512/2612 24009KT P6SM FEW250 FM251900 09008KT P6SM SKC FM260300 VRB06KT P6SM SCT250

4.000'den fazla havaalanı için hava durumu gözlemleri ve tahminleri (METAR ve TAF raporları).

Kullanılabilir istasyonlar harita üzerinde sarı ve kırmızı noktalarla gösterilir.

İstasyonun adını görmek için fareyi noktanın üzerinde gezdirin.

Sonrasında hava gözlem ve tahminlerini görmek için tıklayın.

Haritayı değiştirmek için: yaklaştırmak için siyah artı işaretli yeşil düğmeye ve uzaklaştırmak için de eksi işaretli düğmeye hızla tıklayın; bitişik haritalar için yeşil okları kullanın.


METAR-TAF: